Disclaimer

Please do not use the information listed here in-flight or in-navigation, as they are not provided to us by the airports but are provided by volunteers, so they might be outdated.

Search


Regions


Airport information page

Radio informations:
Tower (TWR) - 119.1 MHz

Airport informations:
Latitude: 30° 55' 03.61" N
Longitude: 029° 41' 47.07" E
Elevation: 177 feet - 54 meters
Operating hours: 24 hour operations
Operating agency: Civil government, landing fees and diplomatic clearance may be required
Timezone: UTC+2(+3DT) - Dates notified by NOTAM
Fuel: Jet A1, without icing nhibitor.

Runway information:
14/32 - 11156 x 148 feet< - >3400 x 45 meters
14R/32L - 1347 x 148 feet< - >411 x 45 meters
14S/32S - 1347 x 148 feet< - >411 x 45 meters

Recent METARs:
HEBA 131900Z 00000KT 9999 SCT020 17/14 Q1015 NOSIG
HEBA 131900Z 00000KT 9999 SCT020 17/14 Q1015 NOSIG
HEBA 132000Z 25008KT 9999 FEW017CB SCT020 17/13 Q1015 NOSIG

Airport on the map: